Strona główna
METAR-TAF:

METAR-TAF

Lotnisko :

Port lotniczy Kingston-Norman Manley

Kingston, Jamajka

Szerokość geograficzna: 17-56N, Długość geograficzna: 076-47W, wysokość: 3 m

Aktualna obserwacja pogody

Raport powstał 16 minut temu, godzina 03:00 UTC
Wiatr 13 kt od wschodnio-południowy wschód
Temperatura 29°C
Wilgotność 74%
Ciśnienie 1017 hPa
Widzialność 10 km lub więcej
Mało chmury na wysokości 2200 ft

METAR: MKJP 180300Z 12013KT 9999 FEW022 29/24 Q1017

czas: 22:16 (03:16 UTC)

Prognoza

Raport powstał 4 godziny i 1 minut temu, godzina 23:15 UTC
Prognoza ważna od 18 godzina 00 UTC do 18 godzina 24 UTC
Wiatr 18 kt od południowy wschód
Widzialność 10 km lub więcej
Mało chmury na wysokości 2200 ft
Stopniowe zmiany
od 18 godzina 04 UTC do 18 godzina 06 UTC
Wiatr 6 kt od północno-północny zachód
Stopniowe zmiany
od 18 godzina 14 UTC do 18 godzina 16 UTC
Wiatr 25 kt od południowy wschód

TAF: MKJP 172315Z 1800/1824 14018KT 9999 FEW022 BECMG 1804/1806 33006KT BECMG 1814/1816 14025KT

Obserwacja i prognoza pogody dla ponad 4000 lotnisk (raport METAR i TAF).

Dostępne stacje oznaczono żółtymi i czerwonymi punktami na mapie.

Najedź kursorem aby zobaczyć nazwę stacji.

Kliknij aby zobaczyć obserwacje i prognozy pogody.

Aby zmienić mapę: kliknij na zielony przycisk z czarnym krzyżykiem, aby powiększyć; na zielony przycisk z myślnikiem, aby pomniejszyć; na zielone strzałki, aby przejść do map sąsiednich.


METAR-TAF: